ENFR weather

CLOSED Frigg QP Platform
Hordaland, Norway

Public forecast

Using degrees Celsius for public forecast. Weather courtesy of forecast.io.

Closest aviation weather report (METAR) to Frigg QP Platform

Closest report is Oseberg A Platform, 43.2 nm (80.1 km) NNE. Retrieved 2019/10/19 11:20 UTC (10 minutes ago):

ENOA 191120Z 04023KT CAVOK 11/06 Q0998 W///S5

Closest aviation forecast (TAF) to Frigg QP Platform

Closest forecast is Oseberg A Platform, 43.2 nm (80.1 km) NNE. Retrieved 2019/10/19 09:57 UTC (2 hours ago):

TAF TAF ENOA 190800Z 1909/2009 03030KT 9999 FEW015 SCT030 BECMG 1923/2002 03018KT PROB30 TEMPO 2006/2009 SHRA FEW015 SCT030CB